Detailed System and Site Information

System Data Health
Measure Timestamp Ago Health
Web Server Live 14:15:01, 28th March 2015 0 s health
Last live-data upload from local system (nw3) 14:15:01, 28th March 2015 0 s health
Last upload of secondary data 14:00:25, 28th March 2015 15 mins health
Latest Webcam upload 14:14:08, 28th March 2015 53 s health
Last upload of 24hr data log 14:14:08, 28th March 2015 53 s health
Last full data process 14:10:02, 28th March 2015 5 mins health
Last data downtime (>15 mins) 11:16:01, 23rd March 2015 5 days
Local System and Site Information
Measure Value
WD Version & Build # 10.37R - 40
WD Start Time 00:29 20/03/15
WD Data Count 255803
WD Memory Use 80,484 K
--- ---
Windows Uptime 8 Days 13 Hours 37 Minutes 5 Seconds
Free System Memory 2550 MB (Max: 4GB)
--- ---
Station Altitude 57 m (187 ft)
Station Latitude 51.556
Station Longitude -0.154
Machine Room Conditions
Measure Value
Temperature 19.6 °C
Temperature Trend -0.1 °C /hr
Relative Humidity 35%
Dew Point 3.7 °C
--- ---
Tmin Today 19.0 °C at 07:46
Tmax Today 20.4 °C at 00:00
Hmin Today 33% at 00:03
Hmax Today 35% at 07:46
Tmin Yesterday 19.2 °C at 06:41
Tmax Yesterday 21.7 °C at 00:00

Site owner and administrator: Ben Lee-Rodgers (2010 - present)

Last 10hrs Temp/Hum for Secondary Sensor and Indoors

Extra Sensors/Indoor

Other

Raw METAR from EGLL (Heathrow)

EGLL 281350Z 23018KT 9999 BKN014 13/09 Q1009
Decode Instructions
Source

WD Screenshot

not available